Aviation Digital Data Service (ADDS)

Output produced by METARs form (1955 UTC 09 December 2018)
found at http://www.aviationweather.gov/metar/data/
 
TAF AMD LPAR 090959Z 0910/0918 06008KT CAVOK
       
LPBJ 091900Z 09003KT CAVOK 12/11 Q1029
TAF LPBJ 091704Z 0918/1018 07007KT CAVOK 
     TEMPO 0918/1018 VRB02KT
       
LPCS 091930Z 03008KT 9999 FEW014 14/13 Q1029
TAF LPCS 091400Z 0915/0924 02007KT CAVOK
       
LPFR 091930Z 00000KT CAVOK 14/10 Q1027
TAF LPFR 091700Z 0918/1018 VRB03KT CAVOK 
     PROB30 0918/0920 33005KT 
     BECMG 0920/0922 06010KT 
     BECMG 1008/1010 10010KT
       
LPFL 091800Z 17016KT 9999 SCT014 SCT025 18/16 Q1020
LPHR 091930Z 14012KT 9999 SCT009 18/17 Q1024
TAF LPHR 091400Z 0915/0924 16012KT 9999 SCT015 SCT030 
     PROB30 
     TEMPO 0918/0924 BKN015
       
LPLA 091900Z /////KT 9999 FEW007 SCT019 17/16 Q1024
TAF LPLA 091705Z 0918/1018 20015KT 9999 FEW020 
     TEMPO 0918/1006 18015G25KT FEW008 BKN020 
     TEMPO 1006/1015 22018G33KT SCT008 BKN014 
     TEMPO 1014/1017 4000 -RA 
     BECMG 1015/1016 32012KT 
     TEMPO 1015/1018 32015G25KT SCT008 BKN014
       
LPPT 091930Z 01003KT 310V060 CAVOK 14/13 Q1029
TAF LPPT 091700Z 0918/1024 06007KT CAVOK
       
LPMA 091930Z 34005KT 9999 SCT015 SCT030 18/12 Q1027
TAF LPMA 091700Z 0918/1018 03008KT 9999 SCT015 BKN030 
     BECMG 0921/0924 VRB05KT SCT015 
     TEMPO 1000/1015 20008KT 
     PROB40 
     TEMPO 1004/1008 8000 SHRA BKN015 FEW025TCU
       
LPMR 091900Z 35003KT 0700 FG VV002 12/12 Q1030
TAF AMD LPMR 091805Z 0918/1018 35008KT 3000 BR SCT003 BKN006 
     PROB40 0918/1003 VRB02KT 0100 FG BKN001 
     BECMG 1003/1006 11010KT CAVOK
       
LPMT 091900Z 02005KT CAVOK 12/12 Q1029
TAF LPMT 091704Z 0918/1018 03008KT CAVOK
       
LPOV 091900Z VRB02KT 4000 BR NSC 12/11 Q1030
TAF AMD LPOV 091905Z 0919/1018 VRB02KT 6000 SCT003 
     PROB40 0919/1005 2000 BR BKN004 
     BECMG 1004/1006 CAVOK
       
LPPD 091930Z 13013KT 9999 FEW014 17/15 Q1026
TAF LPPD 091700Z 0918/1018 14012KT 9999 SCT015 SCT030 
     TEMPO 0918/0924 FEW012 BKN025 
     BECMG 1001/1003 18015KT 
     PROB30 
     TEMPO 1003/1012 3000 DZRA BR SCT005 BKN010 
     BECMG 1010/1012 22015KT 
     TEMPO 1016/1018 5000 RA FEW006 BKN012
       
LPPR 091930Z VRB02KT 2000 0350N BR MIFG FEW003 10/10 Q1030
TAF AMD LPPR 091934Z 0919/1018 VRB03KT 2000 BR FEW003 
     BECMG 0921/0924 06005KT CAVOK 
     BECMG 1001/1003 09010KT
       
LPPS 091930Z 06006KT 9999 SCT014 BKN030 17/13 Q1027
TAF LPPS 091700Z 0918/1024 09008KT 9999 SCT015 BKN030 
     TEMPO 0918/0924 BKN015 
     BECMG 1000/1003 VRB05KT SCT015 
     PROB40 
     TEMPO 1006/1010 8000 SHRA BKN015 FEW025TCU 
     BECMG 1014/1016 27008KT 
     BECMG 1018/1020 32010KT
       
LPAZ 091930Z 12010KT 9999 SCT008 17/16 Q1026
TAF LPAZ 091700Z 0918/1024 14012KT 9999 SCT018 SCT035 
     TEMPO 0918/0924 FEW012 BKN030 
     BECMG 1003/1005 18015KT 
     PROB30 
     TEMPO 1005/1013 3000 DZRA BR SCT005 BKN010 
     BECMG 1011/1013 24015KT 
     BECMG 1016/1018 27017KT 
     TEMPO 1018/1021 5000 BR FEW006 BKN012 
     BECMG 1021/1023 34017KT SCT020